Glendale, MA

1:14 PM EDT on August 27, 2014 (GMT -0400)
Harriman And West | Change Station
CLOSE
Current Station
Airport
Location: North Adams,
Elevation: 653 ft
Nearby Weather Stations

Elev 653 ft 42.70 °N, 73.17 °W | Updated 22 minutes ago

Overcast
Overcast
80 °F
Feels Like 82 °F
N
7
Wind Variable Wind from WSW

Today
High -- | Low -- °F
--% Chance of Precip.
Yesterday
High -- | Low -- °F
Precip. -- in
6:13 AM 7:35 PM
Waxing Crescent, 4% visible
Pressure 29.95 in
Visibility 10.0 miles
Clouds Overcast 3900 ft
Heat Index 82 °F
Dew Point 67 °F
Humidity 64%
Rainfall 0.00 in
Snow Depth Not available.
UV 3 out of 12
Pollen 9.40 out of 12
PM2.5 Moderate
Flu Activity Not available.
METAR KAQW 271652Z AUTO 25006KT 10SM OVC039 27/19 A2996 RMK AO2 SLP142 T02670194

More Conditions Fewer Conditions

Pressure 29.95 in
Visibility 10.0 miles
Clouds Overcast 3900 ft
Heat Index 82 °F
Dew Point 67 °F
Humidity 64%
Rainfall 0.00 in
Snow Depth Not available.
UV 3 out of 12
Pollen 9.40 out of 12
PM2.5 Moderate
Flu Activity Not available.
METAR KAQW 271652Z AUTO 25006KT 10SM OVC039 27/19 A2996 RMK AO2 SLP142 T02670194

More Conditions Fewer Conditions

10-Day Weather Forecast

Almanac

Astronomy

Aug. 27, 2014 Rise Set
Actual Time 6:13 AM EDT 7:35 PM EDT
Civil Twilight 5:44 AM EDT 8:04 PM EDT
Nautical Twilight 5:08 AM EDT 8:39 PM EDT
Astronomical Twilight 4:31 AM EDT 9:16 PM EDT
Moon 8:09 AM EDT 8:22 PM EDT
Length of Visible Light 14h 20m
Length of Day
13h 22m
Tomorrow will be 2m 42s shorter.
Waxing Crescent, 4% of the Moon is Illuminated
Today
Waxing Crescent
Sep 2
First Quarter
Sep 8
Full
Sep 15
Last Quarter
Sep 24
New

Today's Extremes

State Highs State Lows

Community

WunderPhotos

Upload Photos

1,747,728 photos uploaded!

Nearby

Air Quality

  Air Quality AQ Index Pollutant
Yesterday Moderate
PM2.5
Current Moderate
PM2.5
Wednesday Moderate
PM2.5
Wednesday Good
OZONE

Snow Depth

Station Depth Elevation
No new snow has been reported.

Earthquake Activity

City Distance Mag. Time & Date
No recent earthquake activity has been reported nearby.
Minimum magnitude displayed is 2.5.

Coastal Water Temperatures

Place Temperature
No Stations Reporting

Nearby Weather Stations